Time;durP1;ratioP1;P1;durP2;ratioP2;P2;SDS_P1;SDS_P2;PMS_P1;PMS_P2;Temp;Humidity;BMP_temperature;BMP_pressure;BME280_temperature;BME280_humidity;BME280_pressure;Samples;Min_cycle;Max_cycle;Signal;HPM_P1;HPM_P2
2022/05/07 00:01:19;;;;;;;4.47;3.58;;;13.00;99.90;;;;;;7389388;19;20130;-74
2022/05/07 00:03:46;;;;;;;4.82;3.47;;;12.90;99.90;;;;;;7392329;19;20130;-76
2022/05/07 00:06:12;;;;;;;4.28;2.83;;;12.80;99.90;;;;;;7387348;19;20126;-76
2022/05/07 00:08:38;;;;;;;4.15;3.17;;;12.80;99.90;;;;;;7389194;19;20238;-73
2022/05/07 00:11:04;;;;;;;3.65;3.28;;;12.80;99.90;;;;;;7391371;19;20162;-73
2022/05/07 00:13:29;;;;;;;3.50;3.10;;;12.80;99.90;;;;;;7394106;19;20154;-72
2022/05/07 00:18:39;;;;;;;3.20;2.90;;;12.80;99.90;;;;;;7388523;19;20495;-73
2022/05/07 00:21:05;;;;;;;4.22;3.20;;;12.90;99.90;;;;;;7391561;19;20134;-74
2022/05/07 00:23:32;;;;;;;6.22;3.72;;;13.00;99.90;;;;;;7390051;19;20141;-76
2022/05/07 00:25:58;;;;;;;4.85;3.28;;;12.90;99.90;;;;;;7391190;19;20138;-76
2022/05/07 00:28:24;;;;;;;5.70;3.50;;;13.00;99.90;;;;;;7389381;19;20343;-73
2022/05/07 00:30:50;;;;;;;5.15;3.47;;;12.80;99.90;;;;;;7389030;19;20134;-76
2022/05/07 00:33:16;;;;;;;4.10;3.20;;;12.70;99.90;;;;;;7386687;19;20501;-75
2022/05/07 00:35:42;;;;;;;3.63;2.88;;;12.60;99.90;;;;;;7387303;19;20127;-77
2022/05/07 00:38:07;;;;;;;4.45;3.50;;;12.70;99.90;;;;;;7391376;19;20146;-75
2022/05/07 00:40:33;;;;;;;5.88;3.10;;;12.80;99.90;;;;;;7392401;19;20142;-74
2022/05/07 00:42:59;;;;;;;3.83;3.38;;;12.40;99.90;;;;;;7389994;19;20218;-76
2022/05/07 00:45:25;;;;;;;3.28;2.97;;;12.50;99.90;;;;;;7386880;19;20154;-74
2022/05/07 00:47:51;;;;;;;5.30;3.78;;;12.60;99.90;;;;;;7388215;19;20126;-75
2022/05/07 00:53:01;;;;;;;6.03;3.53;;;12.70;99.90;;;;;;7388707;19;20496;-74
2022/05/07 00:55:30;;;;;;;4.13;3.60;;;13.00;99.90;;;;;;7388752;19;20134;-76
2022/05/07 00:57:55;;;;;;;4.40;3.47;;;13.00;99.90;;;;;;7388204;19;20146;-73
2022/05/07 01:00:21;;;;;;;4.10;3.65;;;13.10;99.90;;;;;;7390083;19;20138;-76
2022/05/07 01:02:47;;;;;;;4.27;3.47;;;13.10;99.90;;;;;;7386324;19;20181;-76
2022/05/07 01:05:13;;;;;;;6.18;3.97;;;12.90;99.90;;;;;;7386930;19;20153;-73
2022/05/07 01:07:43;;;;;;;5.13;3.38;;;12.30;99.90;;;;;;7385334;19;20135;-72
2022/05/07 01:10:09;;;;;;;5.57;3.80;;;12.40;99.90;;;;;;7386224;19;20537;-74
2022/05/07 01:12:35;;;;;;;4.57;3.73;;;12.60;99.90;;;;;;7387696;19;20194;-74
2022/05/07 01:15:02;;;;;;;6.67;3.60;;;12.90;99.90;;;;;;7386631;19;20146;-75
2022/05/07 01:17:31;;;;;;;6.27;4.07;;;13.20;99.90;;;;;;7390777;19;20530;-73
2022/05/07 01:19:57;;;;;;;5.37;3.87;;;13.20;99.90;;;;;;7390775;19;20123;-75
2022/05/07 01:22:23;;;;;;;5.03;4.07;;;13.00;99.90;;;;;;7391451;19;20712;-75
2022/05/07 01:24:49;;;;;;;5.33;3.87;;;12.80;99.90;;;;;;7387833;19;20194;-76
2022/05/07 01:27:15;;;;;;;5.90;4.40;;;12.80;99.90;;;;;;7387150;19;20478;-76
2022/05/07 01:29:41;;;;;;;6.03;4.27;;;13.10;99.90;;;;;;7385063;19;20157;-72
2022/05/07 01:32:07;;;;;;;6.43;4.80;;;13.20;99.90;;;;;;7391414;19;20134;-73
2022/05/07 01:34:32;;;;;;;6.17;4.77;;;13.00;99.90;;;;;;7390161;19;20512;-73
2022/05/07 01:36:58;;;;;;;5.78;4.28;;;12.80;99.90;;;;;;7385208;19;20939;-73
2022/05/07 01:39:24;;;;;;;7.40;4.17;;;12.60;99.90;;;;;;7388990;19;20209;-76
2022/05/07 01:41:49;;;;;;;4.97;4.03;;;12.70;99.90;;;;;;7388652;19;20178;-74
2022/05/07 01:44:18;;;;;;;8.23;4.20;;;12.80;99.90;;;;;;7381750;19;20515;-74
2022/05/07 01:49:28;;;;;;;3.63;3.00;;;13.30;99.90;;;;;;7386866;19;20135;-72
2022/05/07 01:51:54;;;;;;;5.27;3.33;;;13.30;99.90;;;;;;7383104;19;20143;-75
2022/05/07 01:54:19;;;;;;;4.63;3.20;;;13.30;99.90;;;;;;7387153;19;20193;-76
2022/05/07 01:56:45;;;;;;;4.43;3.60;;;13.10;99.90;;;;;;7384546;19;20226;-76
2022/05/07 01:59:11;;;;;;;4.20;3.37;;;13.00;99.90;;;;;;7385154;19;20535;-73
2022/05/07 02:01:37;;;;;;;6.50;3.40;;;13.00;99.90;;;;;;7387742;19;20610;-74
2022/05/07 02:04:02;;;;;;;4.50;3.37;;;13.00;99.90;;;;;;7386582;19;20161;-76
2022/05/07 02:06:28;;;;;;;4.07;3.10;;;13.10;99.90;;;;;;7387787;19;20141;-73
2022/05/07 02:08:54;;;;;;;7.43;3.40;;;13.10;99.90;;;;;;7388470;19;20488;-75
2022/05/07 02:11:20;;;;;;;4.80;3.43;;;13.00;99.90;;;;;;7383188;19;20134;-73
2022/05/07 02:13:46;;;;;;;5.23;3.27;;;12.90;99.90;;;;;;7385587;19;20150;-72
2022/05/07 02:16:12;;;;;;;4.80;3.40;;;13.00;99.90;;;;;;7384979;19;20626;-75
2022/05/07 02:18:38;;;;;;;4.40;3.10;;;13.00;99.90;;;;;;7384171;19;20701;-75
2022/05/07 02:21:03;;;;;;;3.63;3.10;;;13.10;99.90;;;;;;7385284;19;20618;-73
2022/05/07 02:23:29;;;;;;;4.50;3.23;;;13.00;99.90;;;;;;7383757;19;20150;-76
2022/05/07 02:25:55;;;;;;;6.20;3.47;;;12.80;99.90;;;;;;7382983;19;20164;-77
2022/05/07 02:28:22;;;;;;;4.68;3.15;;;12.60;99.90;;;;;;7384870;19;20138;-75
2022/05/07 02:30:48;;;;;;;3.77;3.13;;;12.50;99.90;;;;;;7382995;19;20130;-72
2022/05/07 02:33:16;;;;;;;4.23;3.20;;;12.50;99.90;;;;;;7383681;19;20143;-76
2022/05/07 02:35:41;;;;;;;6.00;3.67;;;12.30;99.90;;;;;;7385413;19;20127;-73
2022/05/07 02:38:07;;;;;;;3.43;3.03;;;12.30;99.90;;;;;;7384988;19;20162;-74
2022/05/07 02:42:33;;;;;;;5.10;3.35;;;12.10;99.90;;;;;;7385905;19;20138;-74
2022/05/07 02:43:18;;;;;;;4.80;3.60;;;12.30;99.90;;;;;;7398604;19;20823;-74
2022/05/07 02:45:44;;;;;;;4.57;2.80;;;12.20;99.90;;;;;;7387801;19;20131;-72
2022/05/07 02:48:10;;;;;;;3.97;3.03;;;12.10;99.90;;;;;;7382695;19;20471;-76
2022/05/07 02:50:36;;;;;;;3.60;2.80;;;12.10;99.90;;;;;;7387149;19;20133;-73
2022/05/07 02:53:01;;;;;;;6.70;3.50;;;12.10;99.90;;;;;;7383428;19;20131;-76
2022/05/07 02:55:27;;;;;;;5.65;3.88;;;12.30;99.90;;;;;;7385105;19;20161;-76
2022/05/07 02:57:53;;;;;;;6.07;3.67;;;12.10;99.90;;;;;;7389888;19;20131;-76
2022/05/07 03:00:18;;;;;;;5.67;3.63;;;12.00;99.90;;;;;;7390724;19;20504;-73
2022/05/07 03:02:44;;;;;;;5.37;3.40;;;12.00;99.90;;;;;;7389903;19;20140;-75
2022/05/07 03:05:10;;;;;;;7.07;4.67;;;11.90;99.90;;;;;;7392770;19;20130;-75
2022/05/07 03:07:36;;;;;;;5.43;3.63;;;11.90;99.90;;;;;;7390922;19;20555;-76
2022/05/07 03:10:02;;;;;;;5.80;3.80;;;11.80;99.90;;;;;;7391346;19;20644;-76
2022/05/07 03:12:28;;;;;;;5.40;3.63;;;11.80;99.90;;;;;;7389380;19;20157;-76
2022/05/07 03:14:54;;;;;;;6.80;3.57;;;12.00;99.90;;;;;;7390605;19;20488;-77
2022/05/07 03:17:20;;;;;;;5.33;3.10;;;12.30;99.90;;;;;;7392460;19;20135;-76
2022/05/07 03:19:45;;;;;;;4.30;3.37;;;12.10;99.90;;;;;;7389824;19;20279;-76
2022/05/07 03:22:11;;;;;;;5.67;3.43;;;12.20;99.90;;;;;;7391357;19;20135;-74
2022/05/07 03:24:38;;;;;;;5.37;3.83;;;12.20;99.90;;;;;;7391324;19;20497;-76
2022/05/07 03:27:05;;;;;;;6.93;4.37;;;12.10;99.90;;;;;;7390309;19;20138;-72
2022/05/07 03:29:31;;;;;;;6.37;3.67;;;12.10;99.90;;;;;;7389455;19;20149;-73
2022/05/07 03:31:57;;;;;;;5.37;3.70;;;12.10;99.90;;;;;;7388542;19;20111;-76
2022/05/07 03:34:23;;;;;;;5.10;3.93;;;12.10;99.90;;;;;;7390865;19;20131;-77
2022/05/07 03:36:48;;;;;;;5.37;4.17;;;12.00;99.90;;;;;;7391418;19;20244;-73
2022/05/07 03:39:14;;;;;;;7.47;3.90;;;12.00;99.90;;;;;;7393230;19;20223;-73
2022/05/07 03:41:40;;;;;;;4.13;3.33;;;12.30;99.90;;;;;;7386590;19;20170;-73
2022/05/07 03:44:06;;;;;;;6.13;4.50;;;12.40;99.90;;;;;;7388104;19;20130;-73
2022/05/07 03:46:32;;;;;;;6.70;4.13;;;12.40;99.90;;;;;;7388528;19;20137;-73
2022/05/07 03:48:58;;;;;;;4.80;3.77;;;12.30;99.90;;;;;;7390011;19;20134;-74
2022/05/07 03:51:23;;;;;;;6.97;4.20;;;12.10;99.90;;;;;;7388484;19;20148;-74
2022/05/07 03:53:49;;;;;;;5.87;4.60;;;12.10;99.90;;;;;;7389086;19;20700;-76
2022/05/07 03:56:15;;;;;;;6.07;4.40;;;11.90;99.90;;;;;;7387005;19;20134;-76
2022/05/07 03:58:41;;;;;;;6.33;4.20;;;11.90;99.90;;;;;;7387999;19;20485;-76
2022/05/07 04:01:08;;;;;;;4.73;3.83;;;12.00;99.90;;;;;;7389352;19;20162;-73
2022/05/07 04:03:34;;;;;;;4.47;4.07;;;12.10;99.90;;;;;;7389775;19;20203;-76
2022/05/07 04:06:00;;;;;;;6.50;4.43;;;12.10;99.90;;;;;;7388778;19;20134;-74
2022/05/07 04:08:26;;;;;;;4.60;4.03;;;12.30;99.90;;;;;;7386830;19;20477;-74
2022/05/07 04:10:53;;;;;;;5.37;4.10;;;12.20;99.90;;;;;;7388824;19;20130;-75
2022/05/07 04:13:19;;;;;;;4.87;4.10;;;12.00;99.90;;;;;;7390072;19;20137;-76
2022/05/07 04:15:45;;;;;;;5.27;4.23;;;12.00;99.90;;;;;;7389169;19;20568;-76
2022/05/07 04:18:11;;;;;;;5.72;4.05;;;11.80;99.90;;;;;;7389069;19;20134;-77
2022/05/07 04:20:38;;;;;;;6.53;4.03;;;11.90;99.90;;;;;;7388144;19;20263;-73
2022/05/07 04:23:05;;;;;;;6.90;4.17;;;12.10;99.90;;;;;;7389233;19;20143;-75
2022/05/07 04:25:30;;;;;;;3.47;3.13;;;12.20;99.90;;;;;;7388604;19;20525;-74
2022/05/07 04:27:56;;;;;;;3.90;3.40;;;12.30;99.90;;;;;;7389407;19;20134;-77
2022/05/07 04:30:23;;;;;;;5.57;3.77;;;12.30;99.90;;;;;;7385637;19;20689;-77
2022/05/07 04:32:50;;;;;;;6.43;3.37;;;12.40;99.90;;;;;;7389908;19;20138;-74
2022/05/07 04:35:16;;;;;;;4.30;3.33;;;12.30;99.90;;;;;;7389330;19;20150;-77
2022/05/07 04:37:42;;;;;;;6.00;3.60;;;12.30;99.90;;;;;;7388635;19;20594;-73
2022/05/07 04:40:09;;;;;;;3.80;3.13;;;12.30;99.90;;;;;;7386922;19;20133;-76
2022/05/07 04:42:36;;;;;;;6.03;3.93;;;12.30;99.90;;;;;;7386806;19;20257;-74
2022/05/07 04:45:05;;;;;;;6.03;3.60;;;12.30;99.90;;;;;;7386706;19;20127;-76
2022/05/07 04:47:31;;;;;;;5.37;3.27;;;12.40;99.90;;;;;;7387634;19;20134;-77
2022/05/07 04:49:57;;;;;;;4.07;2.90;;;12.30;99.90;;;;;;7389853;19;20137;-76
2022/05/07 04:52:23;;;;;;;5.33;3.50;;;12.20;99.90;;;;;;7387984;19;20131;-77
2022/05/07 04:54:50;;;;;;;6.30;3.70;;;12.20;99.90;;;;;;7386562;19;20123;-75
2022/05/07 04:57:15;;;;;;;5.77;3.60;;;12.20;99.90;;;;;;7390688;19;20238;-74
2022/05/07 04:59:41;;;;;;;4.47;3.17;;;12.10;99.90;;;;;;7386569;19;20235;-74
2022/05/07 05:02:07;;;;;;;4.00;3.10;;;12.00;99.90;;;;;;7386363;19;20616;-74
2022/05/07 05:04:33;;;;;;;3.97;3.47;;;12.00;99.90;;;;;;7386555;19;20123;-74
2022/05/07 05:06:58;;;;;;;3.60;3.20;;;12.00;99.90;;;;;;7387053;19;20206;-74
2022/05/07 05:09:24;;;;;;;6.77;4.20;;;12.00;99.90;;;;;;7387101;19;21070;-74
2022/05/07 05:11:50;;;;;;;5.00;3.93;;;12.20;99.90;;;;;;7385930;19;20130;-77
2022/05/07 05:17:00;;;;;;;4.83;4.30;;;12.50;99.90;;;;;;7390566;19;20138;-77
2022/05/07 05:19:26;;;;;;;6.17;4.03;;;12.50;99.90;;;;;;7387425;19;20126;-77
2022/05/07 05:21:52;;;;;;;7.33;5.20;;;12.50;99.90;;;;;;7387993;19;20126;-73
2022/05/07 05:24:17;;;;;;;5.70;4.70;;;12.60;99.90;;;;;;7385741;19;20162;-74
2022/05/07 05:26:43;;;;;;;7.57;4.60;;;12.60;99.90;;;;;;7385332;19;20896;-74
2022/05/07 05:29:09;;;;;;;6.07;5.20;;;12.50;99.90;;;;;;7386631;19;20578;-74
2022/05/07 05:31:35;;;;;;;6.93;5.07;;;12.50;99.90;;;;;;7386053;19;20119;-77
2022/05/07 05:34:01;;;;;;;6.97;5.20;;;12.70;99.90;;;;;;7387530;19;20130;-76
2022/05/07 05:36:32;;;;;;;7.37;5.90;;;12.60;99.90;;;;;;7386949;19;20115;-76
2022/05/07 05:38:59;;;;;;;7.83;5.90;;;12.70;99.90;;;;;;7390903;19;20605;-75
2022/05/07 05:41:25;;;;;;;9.17;6.47;;;12.70;99.90;;;;;;7386467;19;20470;-77
2022/05/07 05:43:51;;;;;;;8.67;6.57;;;12.60;99.90;;;;;;7384628;19;20134;-76
2022/05/07 05:46:17;;;;;;;7.30;6.43;;;12.60;99.90;;;;;;7384570;19;20239;-74
2022/05/07 05:48:42;;;;;;;7.67;5.73;;;12.70;99.90;;;;;;7384946;19;20147;-77
2022/05/07 05:51:08;;;;;;;8.30;6.33;;;12.70;99.90;;;;;;7386975;19;20618;-77
2022/05/07 05:53:34;;;;;;;8.60;6.73;;;12.60;99.90;;;;;;7384924;19;20363;-77
2022/05/07 05:56:00;;;;;;;8.83;6.73;;;12.70;99.90;;;;;;7383191;19;20134;-76
2022/05/07 05:58:33;;;;;;;9.07;6.80;;;12.60;99.90;;;;;;7389402;19;20149;-75
2022/05/07 06:01:03;;;;;;;9.53;7.33;;;12.70;99.90;;;;;;7389511;19;20150;-75
2022/05/07 06:03:30;;;;;;;12.10;6.83;;;12.60;99.90;;;;;;7390914;19;20472;-76
2022/05/07 06:05:55;;;;;;;8.87;6.70;;;12.70;99.90;;;;;;7386997;19;20151;-77
2022/05/07 06:08:21;;;;;;;8.73;6.87;;;12.80;99.90;;;;;;7389819;19;20157;-76
2022/05/07 06:10:51;;;;;;;8.67;6.77;;;12.80;99.90;;;;;;7387547;19;20552;-74
2022/05/07 06:13:18;;;;;;;8.10;6.43;;;12.80;99.90;;;;;;7388043;19;20142;-76
2022/05/07 06:15:45;;;;;;;9.33;6.57;;;12.80;99.90;;;;;;7387340;19;20146;-77
2022/05/07 06:18:12;;;;;;;10.17;6.97;;;12.90;99.90;;;;;;7384505;19;20402;-75
2022/05/07 06:20:37;;;;;;;10.63;6.93;;;13.00;99.90;;;;;;7385280;19;20163;-74
2022/05/07 06:23:03;;;;;;;9.77;6.00;;;13.20;99.90;;;;;;7385477;19;20138;-74
2022/05/07 06:28:14;;;;;;;8.23;6.50;;;14.70;99.90;;;;;;7388889;19;20146;-76
2022/05/07 06:30:40;;;;;;;7.50;6.70;;;15.40;99.90;;;;;;7380839;19;20182;-76
2022/05/07 06:33:06;;;;;;;9.53;6.57;;;15.90;99.90;;;;;;7385575;19;20772;-76
2022/05/07 06:35:32;;;;;;;7.27;6.10;;;16.10;99.90;;;;;;7387168;19;20134;-77
2022/05/07 06:37:58;;;;;;;8.50;6.28;;;16.10;99.90;;;;;;7386796;19;20137;-81
2022/05/07 06:40:24;;;;;;;7.57;5.72;;;16.30;99.90;;;;;;7386893;19;20375;-74
2022/05/07 06:42:50;;;;;;;8.57;6.53;;;16.40;99.90;;;;;;7386348;19;20154;-77
2022/05/07 06:45:16;;;;;;;7.07;5.47;;;16.60;99.90;;;;;;7385195;19;20240;-72
2022/05/07 06:47:41;;;;;;;6.43;5.80;;;16.70;99.90;;;;;;7382863;19;20166;-79
2022/05/07 06:50:08;;;;;;;7.07;5.68;;;16.80;99.90;;;;;;7388818;19;20126;-74
2022/05/07 06:52:44;;;;;;;10.10;6.22;;;17.00;99.90;;;;;;7384382;19;20501;-77
2022/05/07 06:55:13;;;;;;;6.30;5.57;;;17.10;99.90;;;;;;7383406;19;20141;-76
2022/05/07 06:57:39;;;;;;;7.37;6.17;;;17.20;99.90;;;;;;7381473;19;20215;-73
2022/05/07 07:00:06;;;;;;;9.23;6.35;;;17.30;99.90;;;;;;7383167;19;20139;-73
2022/05/07 07:02:34;;;;;;;7.00;5.88;;;17.30;99.90;;;;;;7386080;19;20206;-80
2022/05/07 07:05:02;;;;;;;7.78;6.13;;;17.40;99.90;;;;;;7385836;19;20134;-77
2022/05/07 07:07:28;;;;;;;9.20;6.22;;;17.40;99.90;;;;;;7385504;19;20158;-78
2022/05/07 07:09:54;;;;;;;8.35;6.20;;;17.40;99.90;;;;;;7383754;19;20150;-78
2022/05/07 07:12:20;;;;;;;6.80;6.10;;;17.60;99.90;;;;;;7382855;19;20161;-74
2022/05/07 07:14:50;;;;;;;8.15;5.50;;;17.80;99.90;;;;;;7382664;19;20628;-74
2022/05/07 07:17:18;;;;;;;9.27;6.13;;;18.10;99.90;;;;;;7384454;19;20138;-78
2022/05/07 07:19:45;;;;;;;6.28;5.68;;;18.10;99.90;;;;;;7385461;19;20195;-81
2022/05/07 07:22:11;;;;;;;10.05;5.72;;;18.00;99.90;;;;;;7385500;19;20141;-75
2022/05/07 07:24:37;;;;;;;6.80;5.30;;;18.10;99.90;;;;;;7380860;19;20159;-75
2022/05/07 07:27:08;;;;;;;10.38;5.78;;;18.20;99.90;;;;;;7383901;19;20726;-82
2022/05/07 07:29:34;;;;;;;6.97;5.90;;;18.20;99.90;;;;;;7389135;19;20657;-75
2022/05/07 07:32:01;;;;;;;8.95;5.68;;;18.20;99.90;;;;;;7379155;19;20138;-75
2022/05/07 07:34:27;;;;;;;8.55;6.03;;;18.50;99.90;;;;;;7383968;19;20142;-75
2022/05/07 07:36:53;;;;;;;7.63;5.88;;;18.40;99.90;;;;;;7381647;19;20242;-80
2022/05/07 07:39:20;;;;;;;5.95;5.28;;;18.50;99.90;;;;;;7383099;19;20158;-74
2022/05/07 07:41:45;;;;;;;8.95;5.50;;;18.50;99.90;;;;;;7387188;19;20159;-77
2022/05/07 07:44:11;;;;;;;6.05;5.43;;;18.60;99.90;;;;;;7402291;19;20137;-80
2022/05/07 07:49:22;;;;;;;7.55;5.43;;;18.80;99.90;;;;;;7394621;19;20145;-80
2022/05/07 07:51:48;;;;;;;6.00;5.40;;;19.00;99.90;;;;;;7388252;19;20127;-84
2022/05/07 07:54:14;;;;;;;5.78;5.18;;;19.20;99.90;;;;;;7390674;19;20142;-73
2022/05/07 07:56:43;;;;;;;6.78;5.10;;;19.00;99.90;;;;;;7388605;19;20896;-77
2022/05/07 07:59:10;;;;;;;6.07;5.32;;;19.00;99.90;;;;;;7383981;19;20134;-76
2022/05/07 08:01:37;;;;;;;6.90;5.10;;;19.30;99.90;;;;;;7388992;19;20141;-74
2022/05/07 08:04:04;;;;;;;7.15;5.38;;;19.60;99.90;;;;;;7391718;19;20122;-77
2022/05/07 08:06:31;;;;;;;5.88;4.63;;;19.50;99.90;;;;;;7389897;19;20155;-79
2022/05/07 08:11:41;;;;;;;5.28;4.78;;;19.70;99.90;;;;;;7389165;19;20554;-73
2022/05/07 08:14:08;;;;;;;6.57;5.18;;;19.60;99.90;;;;;;7389619;19;20139;-77
2022/05/07 08:16:34;;;;;;;7.82;5.40;;;19.60;99.90;;;;;;7390694;19;20130;-73
2022/05/07 08:19:00;;;;;;;6.75;5.35;;;19.40;99.90;;;;;;7386859;19;20213;-74
2022/05/07 08:21:26;;;;;;;6.95;4.57;;;19.40;99.90;;;;;;7389516;19;20145;-73
2022/05/07 08:23:52;;;;;;;7.07;5.40;;;19.60;99.90;;;;;;7389132;19;20146;-74
2022/05/07 08:26:18;;;;;;;6.93;5.50;;;19.60;99.90;;;;;;7386675;19;20161;-74
2022/05/07 08:28:44;;;;;;;7.57;5.55;;;19.70;99.90;;;;;;7383708;19;20170;-78
2022/05/07 08:31:10;;;;;;;7.53;5.90;;;19.60;99.90;;;;;;7393323;19;20148;-77
2022/05/07 08:33:44;;;;;;;7.82;5.78;;;19.60;99.90;;;;;;7393121;19;20142;-76
2022/05/07 08:36:11;;;;;;;11.63;6.15;;;19.80;99.90;;;;;;7391283;19;20138;-78
2022/05/07 08:38:37;;;;;;;7.43;6.03;;;19.70;99.90;;;;;;7392143;19;20705;-76
2022/05/07 08:41:03;;;;;;;7.70;6.18;;;19.70;99.90;;;;;;7391723;19;20165;-79
2022/05/07 08:43:37;;;;;;;7.88;6.20;;;19.50;99.90;;;;;;7391082;19;20559;-76
2022/05/07 08:46:13;;;;;;;9.80;6.63;;;19.40;99.90;;;;;;7388862;19;20146;-74
2022/05/07 08:48:41;;;;;;;9.07;6.45;;;19.40;99.90;;;;;;7388348;19;20139;-74
2022/05/07 08:51:07;;;;;;;8.57;6.50;;;19.40;99.90;;;;;;7390276;19;20139;-74
2022/05/07 08:53:34;;;;;;;10.00;7.72;;;19.60;99.90;;;;;;7390154;19;20138;-76
2022/05/07 08:55:59;;;;;;;6.68;5.50;;;19.90;99.90;;;;;;7388665;19;20150;-74
2022/05/07 08:58:25;;;;;;;9.23;6.68;;;20.20;99.90;;;;;;7388568;19;20147;-77
2022/05/07 09:00:51;;;;;;;9.82;6.20;;;20.20;99.90;;;;;;7389883;19;20131;-75
2022/05/07 09:03:17;;;;;;;10.95;6.28;;;20.30;99.90;;;;;;7390669;19;20137;-73
2022/05/07 09:05:45;;;;;;;7.50;5.78;;;20.20;99.90;;;;;;7392264;19;20757;-73
2022/05/07 09:08:12;;;;;;;7.68;5.95;;;20.00;99.90;;;;;;7391639;19;20509;-73
2022/05/07 09:10:40;;;;;;;7.30;5.85;;;20.00;99.90;;;;;;7385194;19;20142;-72
2022/05/07 09:13:12;;;;;;;7.93;6.18;;;20.20;99.90;;;;;;7389836;19;20155;-76
2022/05/07 09:15:57;;;;;;;7.78;6.10;;;20.10;99.90;;;;;;7388498;19;20620;-75
2022/05/07 09:18:28;;;;;;;7.15;5.90;;;19.80;99.90;;;;;;7383673;19;20138;-76
2022/05/07 09:21:24;;;;;;;8.98;6.22;;;19.60;99.90;;;;;;7385691;19;20627;-75
2022/05/07 09:23:55;;;;;;;6.68;4.65;;;19.30;99.90;;;;;;7386607;19;20532;-73
2022/05/07 09:26:29;;;;;;;4.53;3.83;;;19.30;99.90;;;;;;7388277;19;20135;-76
2022/05/07 09:28:56;;;;;;;5.45;4.45;;;19.50;99.90;;;;;;7384325;19;20166;-73
2022/05/07 09:31:26;;;;;;;4.88;3.35;;;19.60;99.90;;;;;;7383669;19;20151;-75
2022/05/07 09:33:53;;;;;;;4.93;3.63;;;19.80;99.90;;;;;;7385424;19;20145;-76
2022/05/07 09:36:19;;;;;;;6.15;3.15;;;20.00;99.90;;;;;;7385088;19;20550;-73
2022/05/07 09:38:48;;;;;;;3.72;2.88;;;19.90;99.90;;;;;;7388173;19;20146;-72
2022/05/07 09:41:21;;;;;;;4.78;2.97;;;19.70;99.90;;;;;;7384318;19;20181;-73
2022/05/07 09:43:50;;;;;;;6.78;2.92;;;19.70;99.90;;;;;;7390921;19;20143;-73
2022/05/07 09:46:17;;;;;;;4.40;3.25;;;19.80;99.90;;;;;;7386406;19;20209;-73
2022/05/07 09:48:45;;;;;;;3.85;3.08;;;19.90;99.90;;;;;;7387068;19;20641;-76
2022/05/07 09:51:11;;;;;;;2.60;2.03;;;19.90;99.90;;;;;;7388874;19;20147;-73
2022/05/07 09:59:06;;;;;;;6.82;2.10;;;20.30;98.20;;;;;;7386813;19;20223;-73
2022/05/07 10:02:09;;;;;;;8.25;2.65;;;20.10;97.70;;;;;;7385235;19;20147;-73
2022/05/07 10:04:47;;;;;;;15.70;3.22;;;19.90;98.00;;;;;;7386014;19;20146;-76
2022/05/07 10:07:18;;;;;;;2.35;1.77;;;20.00;98.80;;;;;;7382398;19;20216;-73
2022/05/07 10:09:49;;;;;;;2.40;2.08;;;20.00;97.70;;;;;;7385170;19;20590;-73
2022/05/07 10:12:19;;;;;;;4.32;2.10;;;20.10;98.60;;;;;;7384497;19;20158;-78
2022/05/07 10:14:45;;;;;;;3.47;2.00;;;20.10;98.00;;;;;;7387156;19;20131;-74
2022/05/07 10:17:13;;;;;;;2.42;1.50;;;20.20;97.60;;;;;;7388648;19;20135;-74
2022/05/07 10:19:44;;;;;;;1.83;1.60;;;20.10;96.90;;;;;;7385815;19;20168;-77
2022/05/07 10:22:26;;;;;;;2.05;1.35;;;20.10;96.20;;;;;;7386737;19;20127;-76
2022/05/07 10:25:12;;;;;;;1.45;1.15;;;20.00;94.90;;;;;;7387467;19;20127;-74
2022/05/07 10:27:43;;;;;;;1.60;0.98;;;20.00;94.00;;;;;;7384029;19;20622;-74
2022/05/07 10:30:21;;;;;;;1.48;1.27;;;20.00;92.80;;;;;;7383138;19;20138;-75
2022/05/07 10:32:57;;;;;;;1.38;1.25;;;20.10;93.70;;;;;;7385053;19;20130;-75
2022/05/07 10:35:55;;;;;;;1.73;1.63;;;20.30;95.40;;;;;;7385548;19;20134;-73
2022/05/07 10:38:26;;;;;;;2.35;1.92;;;20.40;95.20;;;;;;7387537;19;20557;-76
2022/05/07 10:41:09;;;;;;;2.30;1.70;;;20.50;95.40;;;;;;7384539;19;20229;-76
2022/05/07 10:43:38;;;;;;;2.35;1.58;;;20.50;95.60;;;;;;7385208;19;20932;-73
2022/05/07 10:46:04;;;;;;;3.60;2.00;;;20.50;95.60;;;;;;7387382;19;20137;-76
2022/05/07 10:48:45;;;;;;;2.63;1.80;;;20.60;96.30;;;;;;7388405;19;20135;-73
2022/05/07 10:51:27;;;;;;;2.05;1.85;;;20.50;97.00;;;;;;7388667;19;20130;-74
2022/05/07 10:53:56;;;;;;;2.35;1.83;;;20.30;96.50;;;;;;7385114;19;20134;-76
2022/05/07 10:56:23;;;;;;;3.10;2.10;;;20.20;96.60;;;;;;7385430;19;20522;-78
2022/05/07 10:58:52;;;;;;;1.98;1.77;;;20.00;96.70;;;;;;7385400;19;20597;-75
2022/05/07 11:01:20;;;;;;;1.95;1.70;;;19.90;97.00;;;;;;7387453;19;20130;-73
2022/05/07 11:03:48;;;;;;;2.55;1.90;;;19.80;97.20;;;;;;7388025;19;20518;-74
2022/05/07 11:06:14;;;;;;;2.38;1.80;;;19.90;97.80;;;;;;7387998;19;20137;-74
2022/05/07 11:08:50;;;;;;;2.88;1.92;;;19.80;97.50;;;;;;7384480;19;20583;-76
2022/05/07 11:11:17;;;;;;;2.10;1.90;;;19.90;97.10;;;;;;7382916;19;20146;-76
2022/05/07 11:13:55;;;;;;;3.63;1.70;;;20.00;97.00;;;;;;7384692;19;20509;-73
2022/05/07 11:16:23;;;;;;;2.10;1.77;;;20.10;96.70;;;;;;7385877;19;20143;-76
2022/05/07 11:18:53;;;;;;;2.05;1.83;;;20.30;96.60;;;;;;7399643;19;20186;-76
2022/05/07 11:21:24;;;;;;;4.88;2.03;;;20.70;95.60;;;;;;7392923;19;20134;-73
2022/05/07 11:23:55;;;;;;;1.73;1.50;;;20.70;94.80;;;;;;7392844;19;20150;-74
2022/05/07 11:26:22;;;;;;;2.58;1.70;;;20.50;95.00;;;;;;7391784;19;20146;-75
2022/05/07 11:28:50;;;;;;;4.03;1.65;;;20.60;95.10;;;;;;7393550;19;20138;-73
2022/05/07 11:31:33;;;;;;;2.25;1.40;;;20.70;94.80;;;;;;7392181;19;20474;-75
2022/05/07 11:34:13;;;;;;;2.80;1.73;;;20.60;94.60;;;;;;7391763;19;20134;-75
2022/05/07 11:36:40;;;;;;;1.92;1.45;;;20.50;94.40;;;;;;7392476;19;20157;-74
2022/05/07 11:39:07;;;;;;;2.03;1.50;;;20.50;94.40;;;;;;7395580;19;20638;-73
2022/05/07 11:41:37;;;;;;;2.53;1.48;;;20.50;94.10;;;;;;7396638;19;20154;-73
2022/05/07 11:46:57;;;;;;;1.25;1.15;;;20.80;92.60;;;;;;7395569;19;20135;-76
2022/05/07 11:49:33;;;;;;;3.28;1.30;;;20.80;92.00;;;;;;7392517;19;20210;-77
2022/05/07 11:52:10;;;;;;;1.77;1.58;;;20.80;92.40;;;;;;7389412;19;20126;-76
2022/05/07 11:54:48;;;;;;;3.38;1.30;;;20.80;93.00;;;;;;7390695;19;20142;-76
2022/05/07 11:57:14;;;;;;;3.25;1.20;;;20.60;93.50;;;;;;7389428;19;20134;-77
2022/05/07 11:59:43;;;;;;;1.52;1.23;;;21.00;92.10;;;;;;7390957;19;20127;-75
2022/05/07 12:02:09;;;;;;;1.45;1.10;;;21.10;92.00;;;;;;7390394;19;20146;-74
2022/05/07 12:04:35;;;;;;;2.13;1.30;;;21.00;92.00;;;;;;7389711;19;20142;-74
2022/05/07 12:07:01;;;;;;;2.00;1.30;;;21.10;91.80;;;;;;7389040;19;20517;-74
2022/05/07 12:09:27;;;;;;;3.38;1.23;;;21.00;91.80;;;;;;7396625;19;20151;-77
2022/05/07 12:11:54;;;;;;;1.38;1.20;;;21.10;91.60;;;;;;7392900;19;20598;-76
2022/05/07 12:14:20;;;;;;;1.65;1.30;;;21.10;91.50;;;;;;7390537;19;20134;-76
2022/05/07 12:19:34;;;;;;;1.70;1.48;;;21.00;92.00;;;;;;7390756;19;20218;-72
2022/05/07 12:30:14;;;;;;;2.92;1.60;;;20.90;92.50;;;;;;7389106;19;20605;-74
2022/05/07 12:32:43;;;;;;;1.98;1.42;;;20.80;92.80;;;;;;7390113;19;20142;-73
2022/05/07 12:35:10;;;;;;;1.92;1.40;;;20.70;92.90;;;;;;7390996;19;20522;-76
2022/05/07 12:37:37;;;;;;;3.75;1.60;;;20.70;93.20;;;;;;7389767;19;20139;-74
2022/05/07 12:40:07;;;;;;;1.50;1.40;;;20.80;93.00;;;;;;7391993;19;20130;-73
2022/05/07 12:42:33;;;;;;;2.15;1.70;;;20.80;92.60;;;;;;7390910;19;20194;-73
2022/05/07 12:44:59;;;;;;;4.22;2.10;;;20.80;92.50;;;;;;7392258;19;20138;-77
2022/05/07 12:47:25;;;;;;;2.25;1.65;;;20.90;92.70;;;;;;7390707;19;20138;-73
2022/05/07 12:49:51;;;;;;;3.00;1.80;;;20.90;92.50;;;;;;7392372;19;20149;-76
2022/05/07 12:52:18;;;;;;;4.57;2.13;;;21.00;92.40;;;;;;7389757;19;20151;-73
2022/05/07 12:54:44;;;;;;;3.80;2.28;;;21.10;92.20;;;;;;7389462;19;20209;-74
2022/05/07 12:57:10;;;;;;;2.78;1.70;;;21.30;92.10;;;;;;7390604;19;20138;-74
2022/05/07 12:59:36;;;;;;;1.25;1.15;;;21.40;92.50;;;;;;7391298;19;20276;-73
2022/05/07 13:02:10;;;;;;;2.58;1.10;;;21.60;91.70;;;;;;7391071;19;20159;-75
2022/05/07 13:04:36;;;;;;;2.13;1.10;;;21.70;91.50;;;;;;7394008;19;20571;-73
2022/05/07 13:07:03;;;;;;;2.80;1.42;;;21.90;91.00;;;;;;7395436;19;20573;-73
2022/05/07 13:09:29;;;;;;;3.25;1.50;;;21.90;90.90;;;;;;7391919;19;20505;-75
2022/05/07 13:11:57;;;;;;;4.80;1.20;;;21.90;90.40;;;;;;7390807;19;20143;-75
2022/05/07 13:14:23;;;;;;;2.03;1.30;;;21.80;90.80;;;;;;7390971;19;20134;-75
2022/05/07 13:16:49;;;;;;;1.60;1.20;;;21.90;91.10;;;;;;7393252;19;20134;-75
2022/05/07 13:19:16;;;;;;;3.58;1.80;;;21.90;91.10;;;;;;7390212;19;20171;-74
2022/05/07 13:21:42;;;;;;;3.05;1.50;;;21.70;90.90;;;;;;7390522;19;20150;-76
2022/05/07 13:24:11;;;;;;;3.88;1.52;;;21.60;91.20;;;;;;7390304;19;20145;-76
2022/05/07 13:26:40;;;;;;;2.47;1.30;;;21.70;90.90;;;;;;7386727;19;20168;-72